sensor_id;sensor_type;location;lat;lon;timestamp;P1;durP1;ratioP1;P2;durP2;ratioP2
71937;SDS011;59810;48.800;9.086;2023-05-07T00:00:43;6.43;;;2.92;;
71937;SDS011;59810;48.800;9.086;2023-05-07T00:03:08;7.50;;;2.67;;
71937;SDS011;59810;48.800;9.086;2023-05-07T00:05:38;7.63;;;2.40;;
71937;SDS011;59810;48.800;9.086;2023-05-07T00:08:07;7.32;;;2.20;;
71937;SDS011;59810;48.800;9.086;2023-05-07T00:10:34;5.80;;;2.20;;
71937;SDS011;59810;48.800;9.086;2023-05-07T00:13:02;6.55;;;2.42;;
71937;SDS011;59810;48.800;9.086;2023-05-07T00:15:28;5.07;;;2.30;;
71937;SDS011;59810;48.800;9.086;2023-05-07T00:17:55;9.45;;;2.42;;
71937;SDS011;59810;48.800;9.086;2023-05-07T00:20:23;4.93;;;2.23;;
71937;SDS011;59810;48.800;9.086;2023-05-07T00:22:48;6.50;;;2.25;;
71937;SDS011;59810;48.800;9.086;2023-05-07T00:25:14;6.33;;;2.37;;
71937;SDS011;59810;48.800;9.086;2023-05-07T00:27:39;6.30;;;2.57;;
71937;SDS011;59810;48.800;9.086;2023-05-07T00:30:05;7.43;;;2.90;;
71937;SDS011;59810;48.800;9.086;2023-05-07T00:32:33;6.20;;;2.97;;
71937;SDS011;59810;48.800;9.086;2023-05-07T00:34:58;6.47;;;2.83;;
71937;SDS011;59810;48.800;9.086;2023-05-07T00:37:26;5.67;;;2.03;;
71937;SDS011;59810;48.800;9.086;2023-05-07T00:39:54;4.78;;;2.28;;
71937;SDS011;59810;48.800;9.086;2023-05-07T00:42:21;6.27;;;2.60;;
71937;SDS011;59810;48.800;9.086;2023-05-07T00:44:47;5.88;;;2.30;;
71937;SDS011;59810;48.800;9.086;2023-05-07T00:47:12;7.07;;;2.30;;
71937;SDS011;59810;48.800;9.086;2023-05-07T00:49:39;5.43;;;2.28;;
71937;SDS011;59810;48.800;9.086;2023-05-07T00:52:09;6.00;;;2.33;;
71937;SDS011;59810;48.800;9.086;2023-05-07T00:54:36;6.13;;;2.58;;
71937;SDS011;59810;48.800;9.086;2023-05-07T00:57:02;6.28;;;2.63;;
71937;SDS011;59810;48.800;9.086;2023-05-07T00:59:31;6.45;;;2.63;;
71937;SDS011;59810;48.800;9.086;2023-05-07T01:01:57;6.63;;;2.60;;
71937;SDS011;59810;48.800;9.086;2023-05-07T01:04:23;6.72;;;2.15;;
71937;SDS011;59810;48.800;9.086;2023-05-07T01:06:49;5.27;;;2.53;;
71937;SDS011;59810;48.800;9.086;2023-05-07T01:09:15;6.80;;;2.70;;
71937;SDS011;59810;48.800;9.086;2023-05-07T01:11:43;7.55;;;2.78;;
71937;SDS011;59810;48.800;9.086;2023-05-07T01:14:13;8.00;;;2.50;;
71937;SDS011;59810;48.800;9.086;2023-05-07T01:16:39;6.47;;;2.50;;
71937;SDS011;59810;48.800;9.086;2023-05-07T01:19:08;6.15;;;2.70;;
71937;SDS011;59810;48.800;9.086;2023-05-07T01:21:36;7.57;;;3.03;;
71937;SDS011;59810;48.800;9.086;2023-05-07T01:24:03;7.20;;;2.55;;
71937;SDS011;59810;48.800;9.086;2023-05-07T01:26:30;7.63;;;2.63;;
71937;SDS011;59810;48.800;9.086;2023-05-07T01:28:58;6.03;;;2.57;;
71937;SDS011;59810;48.800;9.086;2023-05-07T01:31:23;5.88;;;2.47;;
71937;SDS011;59810;48.800;9.086;2023-05-07T01:33:52;6.03;;;2.40;;
71937;SDS011;59810;48.800;9.086;2023-05-07T01:36:21;6.07;;;2.97;;
71937;SDS011;59810;48.800;9.086;2023-05-07T01:38:50;6.07;;;2.55;;
71937;SDS011;59810;48.800;9.086;2023-05-07T01:41:17;6.47;;;2.50;;
71937;SDS011;59810;48.800;9.086;2023-05-07T01:43:43;9.15;;;3.25;;
71937;SDS011;59810;48.800;9.086;2023-05-07T01:46:10;6.43;;;3.47;;
71937;SDS011;59810;48.800;9.086;2023-05-07T01:48:37;7.47;;;3.00;;
71937;SDS011;59810;48.800;9.086;2023-05-07T01:51:03;6.60;;;3.40;;
71937;SDS011;59810;48.800;9.086;2023-05-07T01:53:35;7.20;;;3.27;;
71937;SDS011;59810;48.800;9.086;2023-05-07T01:56:03;6.65;;;2.78;;
71937;SDS011;59810;48.800;9.086;2023-05-07T01:58:29;7.38;;;3.08;;
71937;SDS011;59810;48.800;9.086;2023-05-07T02:00:54;6.53;;;3.40;;
71937;SDS011;59810;48.800;9.086;2023-05-07T02:03:20;9.13;;;3.40;;
71937;SDS011;59810;48.800;9.086;2023-05-07T02:05:45;6.87;;;2.87;;
71937;SDS011;59810;48.800;9.086;2023-05-07T02:08:11;8.75;;;3.40;;
71937;SDS011;59810;48.800;9.086;2023-05-07T02:10:36;9.70;;;3.60;;
71937;SDS011;59810;48.800;9.086;2023-05-07T02:13:02;5.87;;;3.07;;
71937;SDS011;59810;48.800;9.086;2023-05-07T02:15:27;7.57;;;3.50;;
71937;SDS011;59810;48.800;9.086;2023-05-07T02:20:25;6.47;;;2.93;;
71937;SDS011;59810;48.800;9.086;2023-05-07T02:22:51;6.75;;;2.95;;
71937;SDS011;59810;48.800;9.086;2023-05-07T02:25:16;8.57;;;3.30;;
71937;SDS011;59810;48.800;9.086;2023-05-07T02:27:41;6.80;;;2.97;;
71937;SDS011;59810;48.800;9.086;2023-05-07T02:30:09;7.57;;;3.28;;
71937;SDS011;59810;48.800;9.086;2023-05-07T02:32:34;8.10;;;3.40;;
71937;SDS011;59810;48.800;9.086;2023-05-07T02:35:02;7.47;;;3.03;;
71937;SDS011;59810;48.800;9.086;2023-05-07T02:37:30;7.10;;;3.20;;
71937;SDS011;59810;48.800;9.086;2023-05-07T02:39:55;9.07;;;3.50;;
71937;SDS011;59810;48.800;9.086;2023-05-07T02:42:29;8.85;;;3.40;;
71937;SDS011;59810;48.800;9.086;2023-05-07T02:44:55;7.70;;;3.30;;
71937;SDS011;59810;48.800;9.086;2023-05-07T02:47:25;6.25;;;2.67;;
71937;SDS011;59810;48.800;9.086;2023-05-07T02:49:53;8.40;;;3.47;;
71937;SDS011;59810;48.800;9.086;2023-05-07T02:52:22;7.35;;;2.92;;
71937;SDS011;59810;48.800;9.086;2023-05-07T02:54:47;6.13;;;2.67;;
71937;SDS011;59810;48.800;9.086;2023-05-07T02:57:13;6.23;;;2.93;;
71937;SDS011;59810;48.800;9.086;2023-05-07T02:59:38;6.17;;;2.80;;
71937;SDS011;59810;48.800;9.086;2023-05-07T03:02:06;5.95;;;2.60;;
71937;SDS011;59810;48.800;9.086;2023-05-07T03:04:31;7.17;;;3.10;;
71937;SDS011;59810;48.800;9.086;2023-05-07T03:06:57;8.50;;;3.20;;
71937;SDS011;59810;48.800;9.086;2023-05-07T03:09:24;7.00;;;2.78;;
71937;SDS011;59810;48.800;9.086;2023-05-07T03:11:50;6.00;;;3.03;;
71937;SDS011;59810;48.800;9.086;2023-05-07T03:14:15;6.03;;;2.60;;
71937;SDS011;59810;48.800;9.086;2023-05-07T03:16:40;6.17;;;3.00;;
71937;SDS011;59810;48.800;9.086;2023-05-07T03:19:06;7.27;;;2.80;;
71937;SDS011;59810;48.800;9.086;2023-05-07T03:21:33;6.20;;;2.63;;
71937;SDS011;59810;48.800;9.086;2023-05-07T03:24:04;5.45;;;2.33;;
71937;SDS011;59810;48.800;9.086;2023-05-07T03:26:32;6.07;;;2.43;;
71937;SDS011;59810;48.800;9.086;2023-05-07T03:28:59;5.53;;;2.65;;
71937;SDS011;59810;48.800;9.086;2023-05-07T03:31:25;7.43;;;2.63;;
71937;SDS011;59810;48.800;9.086;2023-05-07T03:33:51;7.35;;;3.10;;
71937;SDS011;59810;48.800;9.086;2023-05-07T03:36:17;7.17;;;2.80;;
71937;SDS011;59810;48.800;9.086;2023-05-07T03:38:42;6.97;;;2.95;;
71937;SDS011;59810;48.800;9.086;2023-05-07T03:41:08;6.70;;;3.50;;
71937;SDS011;59810;48.800;9.086;2023-05-07T03:43:35;6.25;;;2.85;;
71937;SDS011;59810;48.800;9.086;2023-05-07T03:46:03;8.93;;;3.03;;
71937;SDS011;59810;48.800;9.086;2023-05-07T03:48:29;7.13;;;3.13;;
71937;SDS011;59810;48.800;9.086;2023-05-07T03:50:59;6.32;;;2.97;;
71937;SDS011;59810;48.800;9.086;2023-05-07T03:53:24;10.18;;;3.55;;
71937;SDS011;59810;48.800;9.086;2023-05-07T03:55:50;5.17;;;2.33;;
71937;SDS011;59810;48.800;9.086;2023-05-07T03:58:15;11.98;;;3.20;;
71937;SDS011;59810;48.800;9.086;2023-05-07T04:00:43;6.10;;;2.83;;
71937;SDS011;59810;48.800;9.086;2023-05-07T04:03:08;6.65;;;2.83;;
71937;SDS011;59810;48.800;9.086;2023-05-07T04:05:34;5.97;;;2.60;;
71937;SDS011;59810;48.800;9.086;2023-05-07T04:08:01;6.10;;;2.63;;
71937;SDS011;59810;48.800;9.086;2023-05-07T04:10:29;7.10;;;2.37;;
71937;SDS011;59810;48.800;9.086;2023-05-07T04:12:54;8.85;;;2.28;;
71937;SDS011;59810;48.800;9.086;2023-05-07T04:15:23;7.03;;;2.55;;
71937;SDS011;59810;48.800;9.086;2023-05-07T04:17:49;6.73;;;2.43;;
71937;SDS011;59810;48.800;9.086;2023-05-07T04:20:16;6.53;;;2.40;;
71937;SDS011;59810;48.800;9.086;2023-05-07T04:22:42;5.47;;;2.17;;
71937;SDS011;59810;48.800;9.086;2023-05-07T04:25:10;7.45;;;2.92;;
71937;SDS011;59810;48.800;9.086;2023-05-07T04:27:38;9.33;;;3.27;;
71937;SDS011;59810;48.800;9.086;2023-05-07T04:30:06;12.82;;;3.65;;
71937;SDS011;59810;48.800;9.086;2023-05-07T04:32:32;7.53;;;3.60;;
71937;SDS011;59810;48.800;9.086;2023-05-07T04:35:02;7.78;;;3.20;;
71937;SDS011;59810;48.800;9.086;2023-05-07T04:37:31;7.15;;;2.92;;
71937;SDS011;59810;48.800;9.086;2023-05-07T04:39:57;7.82;;;2.95;;
71937;SDS011;59810;48.800;9.086;2023-05-07T04:42:22;7.80;;;3.17;;
71937;SDS011;59810;48.800;9.086;2023-05-07T04:44:52;7.90;;;3.17;;
71937;SDS011;59810;48.800;9.086;2023-05-07T04:47:18;9.47;;;3.10;;
71937;SDS011;59810;48.800;9.086;2023-05-07T04:49:43;6.32;;;3.00;;
71937;SDS011;59810;48.800;9.086;2023-05-07T04:52:08;8.50;;;3.73;;
71937;SDS011;59810;48.800;9.086;2023-05-07T04:54:34;7.77;;;2.93;;
71937;SDS011;59810;48.800;9.086;2023-05-07T04:57:00;8.95;;;3.00;;
71937;SDS011;59810;48.800;9.086;2023-05-07T04:59:25;7.17;;;3.47;;
71937;SDS011;59810;48.800;9.086;2023-05-07T05:01:50;6.50;;;2.50;;
71937;SDS011;59810;48.800;9.086;2023-05-07T05:04:16;7.00;;;2.80;;
71937;SDS011;59810;48.800;9.086;2023-05-07T05:06:41;5.97;;;2.20;;
71937;SDS011;59810;48.800;9.086;2023-05-07T05:09:07;5.03;;;2.17;;
71937;SDS011;59810;48.800;9.086;2023-05-07T05:11:34;5.43;;;2.47;;
71937;SDS011;59810;48.800;9.086;2023-05-07T05:14:00;7.00;;;2.28;;
71937;SDS011;59810;48.800;9.086;2023-05-07T05:16:26;16.23;;;4.33;;
71937;SDS011;59810;48.800;9.086;2023-05-07T05:18:52;6.93;;;2.47;;
71937;SDS011;59810;48.800;9.086;2023-05-07T05:21:19;5.33;;;2.33;;
71937;SDS011;59810;48.800;9.086;2023-05-07T05:23:45;6.38;;;2.63;;
71937;SDS011;59810;48.800;9.086;2023-05-07T05:26:10;6.43;;;2.58;;
71937;SDS011;59810;48.800;9.086;2023-05-07T05:28:36;7.03;;;3.23;;
71937;SDS011;59810;48.800;9.086;2023-05-07T05:31:01;6.53;;;3.37;;
71937;SDS011;59810;48.800;9.086;2023-05-07T05:33:27;6.60;;;3.37;;
71937;SDS011;59810;48.800;9.086;2023-05-07T05:35:53;8.77;;;3.43;;
71937;SDS011;59810;48.800;9.086;2023-05-07T05:38:19;7.35;;;3.50;;
71937;SDS011;59810;48.800;9.086;2023-05-07T05:40:45;7.88;;;3.47;;
71937;SDS011;59810;48.800;9.086;2023-05-07T05:43:11;7.40;;;3.37;;
71937;SDS011;59810;48.800;9.086;2023-05-07T05:45:36;7.67;;;3.67;;
71937;SDS011;59810;48.800;9.086;2023-05-07T05:48:01;6.85;;;3.72;;
71937;SDS011;59810;48.800;9.086;2023-05-07T05:50:27;6.67;;;3.20;;
71937;SDS011;59810;48.800;9.086;2023-05-07T05:52:52;8.00;;;3.80;;
71937;SDS011;59810;48.800;9.086;2023-05-07T05:55:18;9.30;;;3.87;;
71937;SDS011;59810;48.800;9.086;2023-05-07T05:57:43;7.73;;;3.33;;
71937;SDS011;59810;48.800;9.086;2023-05-07T06:00:09;6.57;;;3.38;;
71937;SDS011;59810;48.800;9.086;2023-05-07T06:02:34;6.27;;;3.37;;
71937;SDS011;59810;48.800;9.086;2023-05-07T06:05:00;7.70;;;3.60;;
71937;SDS011;59810;48.800;9.086;2023-05-07T06:07:25;8.10;;;3.90;;
71937;SDS011;59810;48.800;9.086;2023-05-07T06:09:50;7.90;;;4.07;;
71937;SDS011;59810;48.800;9.086;2023-05-07T06:12:16;8.03;;;3.90;;
71937;SDS011;59810;48.800;9.086;2023-05-07T06:14:44;8.70;;;4.25;;
71937;SDS011;59810;48.800;9.086;2023-05-07T06:17:09;7.23;;;4.47;;
71937;SDS011;59810;48.800;9.086;2023-05-07T06:19:35;8.50;;;4.33;;
71937;SDS011;59810;48.800;9.086;2023-05-07T06:22:00;9.43;;;4.50;;
71937;SDS011;59810;48.800;9.086;2023-05-07T06:24:30;8.77;;;4.20;;
71937;SDS011;59810;48.800;9.086;2023-05-07T06:26:55;9.27;;;4.63;;
71937;SDS011;59810;48.800;9.086;2023-05-07T06:29:21;9.20;;;5.03;;
71937;SDS011;59810;48.800;9.086;2023-05-07T06:31:50;8.13;;;4.32;;
71937;SDS011;59810;48.800;9.086;2023-05-07T06:34:17;8.15;;;4.68;;
71937;SDS011;59810;48.800;9.086;2023-05-07T06:36:42;7.70;;;4.30;;
71937;SDS011;59810;48.800;9.086;2023-05-07T06:39:08;8.83;;;4.80;;
71937;SDS011;59810;48.800;9.086;2023-05-07T06:41:33;8.47;;;5.00;;
71937;SDS011;59810;48.800;9.086;2023-05-07T06:44:00;7.85;;;4.50;;
71937;SDS011;59810;48.800;9.086;2023-05-07T06:46:25;8.32;;;4.60;;
71937;SDS011;59810;48.800;9.086;2023-05-07T06:48:53;9.13;;;5.63;;
71937;SDS011;59810;48.800;9.086;2023-05-07T06:51:19;8.35;;;4.85;;
71937;SDS011;59810;48.800;9.086;2023-05-07T06:53:44;7.07;;;3.90;;
71937;SDS011;59810;48.800;9.086;2023-05-07T06:56:09;8.60;;;4.30;;
71937;SDS011;59810;48.800;9.086;2023-05-07T06:58:35;7.53;;;4.00;;
71937;SDS011;59810;48.800;9.086;2023-05-07T07:01:01;10.45;;;4.20;;
71937;SDS011;59810;48.800;9.086;2023-05-07T07:03:26;7.00;;;4.03;;
71937;SDS011;59810;48.800;9.086;2023-05-07T07:05:52;6.97;;;3.53;;
71937;SDS011;59810;48.800;9.086;2023-05-07T07:08:18;7.93;;;3.63;;
71937;SDS011;59810;48.800;9.086;2023-05-07T07:10:46;9.20;;;3.80;;
71937;SDS011;59810;48.800;9.086;2023-05-07T07:13:11;7.73;;;3.70;;
71937;SDS011;59810;48.800;9.086;2023-05-07T07:15:37;10.95;;;4.00;;
71937;SDS011;59810;48.800;9.086;2023-05-07T07:18:02;7.10;;;3.33;;
71937;SDS011;59810;48.800;9.086;2023-05-07T07:20:27;6.67;;;3.60;;
71937;SDS011;59810;48.800;9.086;2023-05-07T07:22:53;6.80;;;3.67;;
71937;SDS011;59810;48.800;9.086;2023-05-07T07:25:18;6.87;;;2.93;;
71937;SDS011;59810;48.800;9.086;2023-05-07T07:27:43;6.90;;;2.67;;
71937;SDS011;59810;48.800;9.086;2023-05-07T07:30:09;5.30;;;2.90;;
71937;SDS011;59810;48.800;9.086;2023-05-07T07:32:34;6.07;;;2.70;;
71937;SDS011;59810;48.800;9.086;2023-05-07T07:35:00;6.00;;;2.77;;
71937;SDS011;59810;48.800;9.086;2023-05-07T07:37:26;5.20;;;2.60;;
71937;SDS011;59810;48.800;9.086;2023-05-07T07:39:51;6.33;;;2.60;;
71937;SDS011;59810;48.800;9.086;2023-05-07T07:42:17;6.67;;;3.40;;
71937;SDS011;59810;48.800;9.086;2023-05-07T07:44:44;9.88;;;3.50;;
71937;SDS011;59810;48.800;9.086;2023-05-07T07:47:10;5.90;;;2.63;;
71937;SDS011;59810;48.800;9.086;2023-05-07T07:49:37;7.10;;;2.73;;
71937;SDS011;59810;48.800;9.086;2023-05-07T07:52:03;6.03;;;2.93;;
71937;SDS011;59810;48.800;9.086;2023-05-07T07:54:28;5.53;;;2.60;;
71937;SDS011;59810;48.800;9.086;2023-05-07T07:56:54;6.00;;;2.50;;
71937;SDS011;59810;48.800;9.086;2023-05-07T07:59:19;5.90;;;2.47;;
71937;SDS011;59810;48.800;9.086;2023-05-07T08:01:45;5.40;;;2.30;;
71937;SDS011;59810;48.800;9.086;2023-05-07T08:04:10;4.40;;;2.17;;
71937;SDS011;59810;48.800;9.086;2023-05-07T08:06:36;5.78;;;2.40;;
71937;SDS011;59810;48.800;9.086;2023-05-07T08:09:01;6.37;;;2.63;;
71937;SDS011;59810;48.800;9.086;2023-05-07T08:11:29;8.35;;;2.83;;
71937;SDS011;59810;48.800;9.086;2023-05-07T08:13:55;5.30;;;2.50;;
71937;SDS011;59810;48.800;9.086;2023-05-07T08:16:21;5.05;;;2.20;;
71937;SDS011;59810;48.800;9.086;2023-05-07T08:18:46;6.07;;;2.70;;
71937;SDS011;59810;48.800;9.086;2023-05-07T08:21:11;5.07;;;2.60;;
71937;SDS011;59810;48.800;9.086;2023-05-07T08:23:37;6.57;;;2.20;;
71937;SDS011;59810;48.800;9.086;2023-05-07T08:26:02;7.07;;;2.88;;
71937;SDS011;59810;48.800;9.086;2023-05-07T08:28:30;4.67;;;2.17;;
71937;SDS011;59810;48.800;9.086;2023-05-07T08:30:57;5.60;;;2.33;;
71937;SDS011;59810;48.800;9.086;2023-05-07T08:33:25;6.55;;;2.50;;
71937;SDS011;59810;48.800;9.086;2023-05-07T08:35:53;5.20;;;2.20;;
71937;SDS011;59810;48.800;9.086;2023-05-07T08:38:18;4.93;;;2.40;;
71937;SDS011;59810;48.800;9.086;2023-05-07T08:40:46;5.93;;;2.53;;
71937;SDS011;59810;48.800;9.086;2023-05-07T08:43:14;5.10;;;2.27;;
71937;SDS011;59810;48.800;9.086;2023-05-07T08:45:41;5.63;;;2.63;;
71937;SDS011;59810;48.800;9.086;2023-05-07T08:48:14;6.38;;;2.35;;
71937;SDS011;59810;48.800;9.086;2023-05-07T08:50:41;5.75;;;2.42;;
71937;SDS011;59810;48.800;9.086;2023-05-07T08:53:06;5.87;;;2.63;;
71937;SDS011;59810;48.800;9.086;2023-05-07T08:55:31;6.37;;;2.83;;
71937;SDS011;59810;48.800;9.086;2023-05-07T08:57:58;4.20;;;2.15;;
71937;SDS011;59810;48.800;9.086;2023-05-07T09:00:23;4.70;;;2.67;;
71937;SDS011;59810;48.800;9.086;2023-05-07T09:02:49;6.57;;;2.13;;
71937;SDS011;59810;48.800;9.086;2023-05-07T09:05:14;5.30;;;2.40;;
71937;SDS011;59810;48.800;9.086;2023-05-07T09:07:40;4.78;;;2.30;;
71937;SDS011;59810;48.800;9.086;2023-05-07T09:10:08;6.40;;;2.50;;
71937;SDS011;59810;48.800;9.086;2023-05-07T09:12:34;5.23;;;2.20;;
71937;SDS011;59810;48.800;9.086;2023-05-07T09:15:01;5.97;;;2.38;;
71937;SDS011;59810;48.800;9.086;2023-05-07T09:17:29;4.43;;;2.10;;
71937;SDS011;59810;48.800;9.086;2023-05-07T09:19:54;5.83;;;2.70;;
71937;SDS011;59810;48.800;9.086;2023-05-07T09:22:19;4.63;;;2.40;;
71937;SDS011;59810;48.800;9.086;2023-05-07T09:24:49;4.57;;;2.10;;
71937;SDS011;59810;48.800;9.086;2023-05-07T09:27:17;5.93;;;2.20;;
71937;SDS011;59810;48.800;9.086;2023-05-07T09:29:43;6.25;;;2.53;;
71937;SDS011;59810;48.800;9.086;2023-05-07T09:32:09;4.75;;;2.70;;
71937;SDS011;59810;48.800;9.086;2023-05-07T09:34:34;4.50;;;2.50;;
71937;SDS011;59810;48.800;9.086;2023-05-07T09:37:04;5.30;;;2.20;;
71937;SDS011;59810;48.800;9.086;2023-05-07T09:39:43;6.95;;;2.60;;
71937;SDS011;59810;48.800;9.086;2023-05-07T09:42:11;6.40;;;2.67;;
71937;SDS011;59810;48.800;9.086;2023-05-07T09:44:37;7.15;;;2.40;;
71937;SDS011;59810;48.800;9.086;2023-05-07T09:47:07;5.18;;;2.25;;
71937;SDS011;59810;48.800;9.086;2023-05-07T09:49:36;3.97;;;1.90;;
71937;SDS011;59810;48.800;9.086;2023-05-07T09:52:07;4.90;;;2.50;;
71937;SDS011;59810;48.800;9.086;2023-05-07T09:54:35;4.13;;;2.23;;
71937;SDS011;59810;48.800;9.086;2023-05-07T09:57:02;4.32;;;2.40;;
71937;SDS011;59810;48.800;9.086;2023-05-07T09:59:29;4.40;;;2.15;;
71937;SDS011;59810;48.800;9.086;2023-05-07T10:01:58;5.00;;;2.20;;
71937;SDS011;59810;48.800;9.086;2023-05-07T10:04:25;4.07;;;2.17;;
71937;SDS011;59810;48.800;9.086;2023-05-07T10:06:51;3.83;;;2.00;;
71937;SDS011;59810;48.800;9.086;2023-05-07T10:09:18;4.40;;;2.10;;
71937;SDS011;59810;48.800;9.086;2023-05-07T10:11:46;4.55;;;2.60;;
71937;SDS011;59810;48.800;9.086;2023-05-07T10:14:14;4.57;;;2.53;;
71937;SDS011;59810;48.800;9.086;2023-05-07T10:16:39;5.63;;;2.40;;
71937;SDS011;59810;48.800;9.086;2023-05-07T10:19:06;5.03;;;2.50;;
71937;SDS011;59810;48.800;9.086;2023-05-07T10:21:36;5.30;;;2.30;;
71937;SDS011;59810;48.800;9.086;2023-05-07T10:24:08;4.55;;;2.40;;
71937;SDS011;59810;48.800;9.086;2023-05-07T10:26:39;5.60;;;2.47;;
71937;SDS011;59810;48.800;9.086;2023-05-07T10:29:10;5.22;;;2.45;;
71937;SDS011;59810;48.800;9.086;2023-05-07T10:34:56;6.20;;;2.50;;
71937;SDS011;59810;48.800;9.086;2023-05-07T10:37:27;4.40;;;2.33;;
71937;SDS011;59810;48.800;9.086;2023-05-07T10:39:53;5.23;;;2.40;;
71937;SDS011;59810;48.800;9.086;2023-05-07T10:42:19;4.80;;;1.98;;
71937;SDS011;59810;48.800;9.086;2023-05-07T10:44:45;4.57;;;2.20;;
71937;SDS011;59810;48.800;9.086;2023-05-07T10:47:13;4.03;;;2.40;;
71937;SDS011;59810;48.800;9.086;2023-05-07T10:54:42;9.10;;;3.97;;
71937;SDS011;59810;48.800;9.086;2023-05-07T10:59:53;4.90;;;2.40;;
71937;SDS011;59810;48.800;9.086;2023-05-07T11:02:19;5.72;;;2.50;;
71937;SDS011;59810;48.800;9.086;2023-05-07T11:04:44;5.13;;;2.40;;
71937;SDS011;59810;48.800;9.086;2023-05-07T11:07:26;5.13;;;2.10;;
71937;SDS011;59810;48.800;9.086;2023-05-07T11:15:14;4.97;;;2.43;;
71937;SDS011;59810;48.800;9.086;2023-05-07T11:26:02;5.70;;;2.55;;
71937;SDS011;59810;48.800;9.086;2023-05-07T11:28:38;6.93;;;2.63;;
71937;SDS011;59810;48.800;9.086;2023-05-07T11:31:05;5.22;;;2.38;;
71937;SDS011;59810;48.800;9.086;2023-05-07T11:33:31;6.07;;;2.65;;
71937;SDS011;59810;48.800;9.086;2023-05-07T11:35:57;7.00;;;3.30;;
71937;SDS011;59810;48.800;9.086;2023-05-07T11:38:24;7.57;;;3.37;;
71937;SDS011;59810;48.800;9.086;2023-05-07T11:40:53;5.85;;;3.38;;
71937;SDS011;59810;48.800;9.086;2023-05-07T11:43:21;6.88;;;3.35;;
71937;SDS011;59810;48.800;9.086;2023-05-07T11:45:46;8.20;;;3.40;;
71937;SDS011;59810;48.800;9.086;2023-05-07T11:48:13;6.65;;;3.67;;
71937;SDS011;59810;48.800;9.086;2023-05-07T11:50:52;8.07;;;3.35;;
71937;SDS011;59810;48.800;9.086;2023-05-07T11:53:19;5.03;;;2.90;;
71937;SDS011;59810;48.800;9.086;2023-05-07T11:55:45;9.33;;;3.30;;
71937;SDS011;59810;48.800;9.086;2023-05-07T11:58:18;5.25;;;2.78;;
71937;SDS011;59810;48.800;9.086;2023-05-07T12:00:50;6.28;;;3.38;;
71937;SDS011;59810;48.800;9.086;2023-05-07T12:03:16;6.60;;;3.20;;
71937;SDS011;59810;48.800;9.086;2023-05-07T12:05:44;6.78;;;3.05;;
71937;SDS011;59810;48.800;9.086;2023-05-07T12:08:13;5.37;;;2.63;;
71937;SDS011;59810;48.800;9.086;2023-05-07T12:10:43;10.38;;;4.90;;
71937;SDS011;59810;48.800;9.086;2023-05-07T12:13:20;5.88;;;2.10;;
71937;SDS011;59810;48.800;9.086;2023-05-07T12:15:50;5.60;;;2.00;;
71937;SDS011;59810;48.800;9.086;2023-05-07T12:18:16;4.43;;;1.60;;
71937;SDS011;59810;48.800;9.086;2023-05-07T12:20:44;5.97;;;1.90;;
71937;SDS011;59810;48.800;9.086;2023-05-07T12:23:10;5.32;;;2.72;;
71937;SDS011;59810;48.800;9.086;2023-05-07T12:25:36;11.57;;;3.43;;
71937;SDS011;59810;48.800;9.086;2023-05-07T12:28:03;8.45;;;3.50;;
71937;SDS011;59810;48.800;9.086;2023-05-07T12:30:30;9.85;;;3.90;;
71937;SDS011;59810;48.800;9.086;2023-05-07T12:33:08;9.83;;;3.60;;
71937;SDS011;59810;48.800;9.086;2023-05-07T12:35:37;9.30;;;3.47;;
71937;SDS011;59810;48.800;9.086;2023-05-07T12:38:08;7.07;;;3.00;;
71937;SDS011;59810;48.800;9.086;2023-05-07T12:40:41;5.90;;;3.08;;
71937;SDS011;59810;48.800;9.086;2023-05-07T12:43:15;8.80;;;3.33;;
71937;SDS011;59810;48.800;9.086;2023-05-07T12:45:44;8.55;;;3.05;;
71937;SDS011;59810;48.800;9.086;2023-05-07T12:48:11;7.10;;;3.40;;
71937;SDS011;59810;48.800;9.086;2023-05-07T12:50:36;8.27;;;3.47;;
71937;SDS011;59810;48.800;9.086;2023-05-07T12:53:05;5.75;;;1.90;;
71937;SDS011;59810;48.800;9.086;2023-05-07T12:55:32;5.65;;;1.92;;
71937;SDS011;59810;48.800;9.086;2023-05-07T12:58:06;5.43;;;2.27;;
71937;SDS011;59810;48.800;9.086;2023-05-07T13:00:32;6.20;;;2.03;;
71937;SDS011;59810;48.800;9.086;2023-05-07T13:03:04;5.47;;;1.87;;
71937;SDS011;59810;48.800;9.086;2023-05-07T13:05:32;6.20;;;1.70;;
71937;SDS011;59810;48.800;9.086;2023-05-07T13:08:00;4.93;;;1.50;;
71937;SDS011;59810;48.800;9.086;2023-05-07T13:10:26;5.23;;;2.00;;
71937;SDS011;59810;48.800;9.086;2023-05-07T13:12:52;6.18;;;1.77;;
71937;SDS011;59810;48.800;9.086;2023-05-07T13:15:17;4.43;;;1.50;;
71937;SDS011;59810;48.800;9.086;2023-05-07T13:17:46;4.65;;;1.80;;
71937;SDS011;59810;48.800;9.086;2023-05-07T13:20:12;6.97;;;1.57;;
71937;SDS011;59810;48.800;9.086;2023-05-07T13:22:40;4.28;;;1.40;;
71937;SDS011;59810;48.800;9.086;2023-05-07T13:25:05;8.97;;;2.00;;
71937;SDS011;59810;48.800;9.086;2023-05-07T13:27:33;8.43;;;1.70;;
71937;SDS011;59810;48.800;9.086;2023-05-07T13:30:02;5.47;;;1.60;;
71937;SDS011;59810;48.800;9.086;2023-05-07T13:32:28;7.35;;;1.80;;
71937;SDS011;59810;48.800;9.086;2023-05-07T13:34:53;6.43;;;1.47;;
71937;SDS011;59810;48.800;9.086;2023-05-07T13:37:19;5.90;;;1.40;;
71937;SDS011;59810;48.800;9.086;2023-05-07T13:39:45;17.58;;;8.25;;
71937;SDS011;59810;48.800;9.086;2023-05-07T13:42:10;6.50;;;1.70;;
71937;SDS011;59810;48.800;9.086;2023-05-07T13:44:36;6.00;;;1.90;;
71937;SDS011;59810;48.800;9.086;2023-05-07T13:47:01;5.17;;;2.03;;
71937;SDS011;59810;48.800;9.086;2023-05-07T13:49:26;8.37;;;1.70;;
71937;SDS011;59810;48.800;9.086;2023-05-07T13:51:52;15.33;;;4.37;;
71937;SDS011;59810;48.800;9.086;2023-05-07T13:54:17;9.13;;;1.77;;
71937;SDS011;59810;48.800;9.086;2023-05-07T13:56:43;4.57;;;1.20;;
71937;SDS011;59810;48.800;9.086;2023-05-07T13:59:08;3.37;;;1.10;;
71937;SDS011;59810;48.800;9.086;2023-05-07T14:01:33;5.67;;;1.50;;
71937;SDS011;59810;48.800;9.086;2023-05-07T14:03:58;3.70;;;1.20;;
71937;SDS011;59810;48.800;9.086;2023-05-07T14:06:24;4.27;;;1.60;;
71937;SDS011;59810;48.800;9.086;2023-05-07T14:08:50;4.88;;;1.50;;
71937;SDS011;59810;48.800;9.086;2023-05-07T14:11:15;7.33;;;1.90;;
71937;SDS011;59810;48.800;9.086;2023-05-07T14:13:41;5.30;;;1.90;;
71937;SDS011;59810;48.800;9.086;2023-05-07T14:16:06;5.67;;;2.10;;
71937;SDS011;59810;48.800;9.086;2023-05-07T14:18:31;4.40;;;2.00;;
71937;SDS011;59810;48.800;9.086;2023-05-07T14:20:58;6.05;;;2.10;;
71937;SDS011;59810;48.800;9.086;2023-05-07T14:23:24;5.63;;;2.33;;
71937;SDS011;59810;48.800;9.086;2023-05-07T14:25:51;5.57;;;2.08;;
71937;SDS011;59810;48.800;9.086;2023-05-07T14:28:22;5.47;;;2.20;;
71937;SDS011;59810;48.800;9.086;2023-05-07T14:30:47;3.60;;;1.67;;
71937;SDS011;59810;48.800;9.086;2023-05-07T14:33:13;9.77;;;1.93;;
71937;SDS011;59810;48.800;9.086;2023-05-07T14:35:38;5.53;;;2.10;;
71937;SDS011;59810;48.800;9.086;2023-05-07T14:38:06;6.03;;;1.70;;
71937;SDS011;59810;48.800;9.086;2023-05-07T14:40:31;4.90;;;1.80;;
71937;SDS011;59810;48.800;9.086;2023-05-07T14:42:59;6.40;;;1.88;;
71937;SDS011;59810;48.800;9.086;2023-05-07T14:45:25;3.37;;;1.23;;
71937;SDS011;59810;48.800;9.086;2023-05-07T14:47:50;4.55;;;1.65;;
71937;SDS011;59810;48.800;9.086;2023-05-07T14:50:15;3.97;;;1.20;;
71937;SDS011;59810;48.800;9.086;2023-05-07T14:52:41;4.70;;;1.50;;
71937;SDS011;59810;48.800;9.086;2023-05-07T14:55:06;5.43;;;1.47;;
71937;SDS011;59810;48.800;9.086;2023-05-07T14:57:32;6.00;;;1.63;;
71937;SDS011;59810;48.800;9.086;2023-05-07T15:00:00;4.00;;;1.42;;
71937;SDS011;59810;48.800;9.086;2023-05-07T15:02:34;6.15;;;1.60;;
71937;SDS011;59810;48.800;9.086;2023-05-07T15:05:00;3.67;;;1.40;;
71937;SDS011;59810;48.800;9.086;2023-05-07T15:07:25;3.47;;;1.33;;
71937;SDS011;59810;48.800;9.086;2023-05-07T15:09:50;6.17;;;2.23;;
71937;SDS011;59810;48.800;9.086;2023-05-07T15:12:16;4.75;;;1.85;;